createdAt,value
2019-02-08T00:01:27.546Z,3.29
2019-02-08T00:04:00.636Z,3.29
2019-02-08T00:06:30.991Z,3.24
2019-02-08T00:09:00.914Z,3.09
2019-02-08T00:11:32.326Z,3.18
2019-02-08T00:14:02.342Z,3.18
2019-02-08T00:16:32.297Z,3.17
2019-02-08T00:19:02.276Z,3.23
2019-02-08T00:21:32.299Z,3.08
2019-02-08T00:24:02.267Z,3.23
2019-02-08T00:26:32.306Z,3.25
2019-02-08T00:29:02.370Z,3.08
2019-02-08T00:31:33.545Z,3.20
2019-02-08T00:34:03.688Z,3.23
2019-02-08T00:36:33.778Z,3.15
2019-02-08T00:39:05.689Z,3.23
2019-02-08T00:41:37.321Z,3.35
2019-02-08T00:44:07.843Z,3.40
2019-02-08T00:46:38.059Z,3.31
2019-02-08T00:49:08.019Z,3.40
2019-02-08T00:51:38.006Z,3.30
2019-02-08T00:54:08.028Z,3.41
2019-02-08T00:56:38.006Z,3.37
2019-02-08T00:59:08.434Z,3.40
2019-02-08T01:01:38.359Z,3.36
2019-02-08T01:04:08.540Z,3.28
2019-02-08T01:06:38.510Z,3.27
2019-02-08T01:09:10.211Z,3.22
2019-02-08T01:11:40.309Z,3.12
2019-02-08T01:14:10.643Z,3.18
2019-02-08T01:16:40.613Z,3.17
2019-02-08T01:19:10.688Z,3.18
2019-02-08T01:21:40.678Z,3.19
2019-02-08T01:24:10.777Z,3.24
2019-02-08T01:26:42.028Z,3.24
2019-02-08T01:29:12.096Z,3.23
2019-02-08T01:31:42.056Z,3.38
2019-02-08T01:34:12.087Z,3.49
2019-02-08T01:36:42.060Z,3.56
2019-02-08T01:39:12.077Z,3.45
2019-02-08T01:41:42.049Z,3.38
2019-02-08T01:44:12.005Z,3.26
2019-02-08T01:46:42.018Z,3.11
2019-02-08T01:49:11.944Z,3.29
2019-02-08T01:51:41.938Z,3.22
2019-02-08T01:54:11.943Z,3.03
2019-02-08T01:56:41.891Z,3.02
2019-02-08T01:59:11.890Z,2.98
2019-02-08T02:01:41.897Z,3.03
2019-02-08T02:04:11.917Z,3.01
2019-02-08T02:06:41.915Z,2.96
2019-02-08T02:09:11.898Z,2.94
2019-02-08T02:11:41.828Z,3.03
2019-02-08T02:14:11.852Z,3.07
2019-02-08T02:16:41.726Z,3.23
2019-02-08T02:19:11.763Z,3.05
2019-02-08T02:21:41.670Z,2.95
2019-02-08T02:24:11.760Z,3.04
2019-02-08T02:26:41.702Z,3.07
2019-02-08T02:29:11.653Z,3.17
2019-02-08T02:31:41.569Z,3.03
2019-02-08T02:34:11.594Z,3.01
2019-02-08T02:36:41.504Z,2.96
2019-02-08T02:39:11.582Z,2.91
2019-02-08T02:41:41.582Z,2.86
2019-02-08T02:44:11.601Z,2.93
2019-02-08T02:46:41.499Z,2.89
2019-02-08T02:49:11.592Z,2.92
2019-02-08T02:51:41.563Z,2.89
2019-02-08T02:54:11.499Z,2.85
2019-02-08T02:56:42.220Z,2.77
2019-02-08T02:59:12.220Z,2.73
2019-02-08T03:01:42.703Z,2.69
2019-02-08T03:04:12.682Z,2.75
2019-02-08T03:06:46.445Z,2.78
2019-02-08T03:09:16.429Z,2.77
2019-02-08T03:11:46.376Z,2.89
2019-02-08T03:14:16.354Z,2.93
2019-02-08T03:16:46.288Z,2.97
2019-02-08T03:19:16.262Z,2.93
2019-02-08T03:21:46.297Z,2.95
2019-02-08T03:24:16.313Z,2.95
2019-02-08T03:26:46.235Z,2.92
2019-02-08T03:29:16.170Z,2.90
2019-02-08T03:31:46.174Z,2.97
2019-02-08T03:34:21.612Z,2.95
2019-02-08T03:36:51.425Z,3.06
2019-02-08T03:39:21.443Z,3.05
2019-02-08T03:41:51.350Z,3.06
2019-02-08T03:44:21.335Z,3.06
2019-02-08T03:46:51.243Z,3.06
2019-02-08T03:49:21.272Z,3.06
2019-02-08T03:51:51.180Z,3.11
2019-02-08T03:54:21.525Z,3.16
2019-02-08T03:56:51.571Z,3.20
2019-02-08T03:59:21.655Z,3.22
2019-02-08T04:01:51.663Z,3.16
2019-02-08T04:04:21.628Z,3.22
2019-02-08T04:06:51.634Z,3.24
2019-02-08T04:09:21.617Z,3.18
2019-02-08T04:11:51.578Z,3.16
2019-02-08T04:14:21.496Z,3.17
2019-02-08T04:16:51.432Z,3.17
2019-02-08T04:19:21.342Z,3.31
2019-02-08T04:21:51.309Z,3.25
2019-02-08T04:24:29.578Z,3.30
2019-02-08T04:26:53.094Z,3.27
2019-02-08T04:29:23.073Z,3.27
2019-02-08T04:31:53.252Z,3.28
2019-02-08T04:34:23.259Z,3.19
2019-02-08T04:36:53.163Z,3.28
2019-02-08T04:39:23.194Z,3.20
2019-02-08T04:41:53.090Z,3.24
2019-02-08T04:44:23.118Z,3.23
2019-02-08T04:46:53.095Z,3.17
2019-02-08T04:49:23.107Z,3.22
2019-02-08T04:51:52.944Z,3.21
2019-02-08T04:54:22.903Z,3.15
2019-02-08T04:56:52.824Z,3.09
2019-02-08T04:59:22.853Z,3.04
2019-02-08T05:01:52.879Z,3.05
2019-02-08T05:04:22.794Z,3.00
2019-02-08T05:06:52.824Z,3.12
2019-02-08T05:09:22.782Z,3.05
2019-02-08T05:11:52.738Z,2.91
2019-02-08T05:14:22.783Z,2.88
2019-02-08T05:16:52.801Z,2.76
2019-02-08T05:19:22.768Z,2.66
2019-02-08T05:21:52.733Z,2.58
2019-02-08T05:24:22.738Z,2.51
2019-02-08T05:26:52.734Z,2.38
2019-02-08T05:29:22.701Z,2.31
2019-02-08T05:31:52.599Z,2.22
2019-02-08T05:34:22.554Z,2.24
2019-02-08T05:36:52.421Z,2.23
2019-02-08T05:39:22.394Z,2.18
2019-02-08T05:41:52.375Z,2.05
2019-02-08T05:44:22.406Z,1.93
2019-02-08T05:46:52.315Z,1.75
2019-02-08T05:49:22.255Z,1.73
2019-02-08T05:51:52.229Z,1.69
2019-02-08T05:54:22.245Z,1.66
2019-02-08T05:56:52.206Z,1.61
2019-02-08T05:59:22.208Z,1.62
2019-02-08T06:01:52.118Z,1.49
2019-02-08T06:04:22.168Z,1.36
2019-02-08T06:06:52.075Z,1.25
2019-02-08T06:09:22.091Z,1.24
2019-02-08T06:11:52.099Z,1.22
2019-02-08T06:14:22.119Z,1.33
2019-02-08T06:16:53.102Z,1.30
2019-02-08T06:19:23.131Z,1.27
2019-02-08T06:21:54.146Z,1.23
2019-02-08T06:24:24.153Z,1.23
2019-02-08T06:26:54.075Z,1.17
2019-02-08T06:29:24.055Z,1.31
2019-02-08T06:31:54.390Z,1.29
2019-02-08T06:34:24.403Z,1.25
2019-02-08T06:36:54.346Z,1.33
2019-02-08T06:39:24.259Z,1.82
2019-02-08T06:41:54.286Z,1.96
2019-02-08T06:44:24.261Z,2.07
2019-02-08T06:46:54.222Z,2.19
2019-02-08T06:49:24.204Z,1.99
2019-02-08T06:51:54.076Z,2.03
2019-02-08T06:54:24.078Z,2.02
2019-02-08T06:57:03.166Z,1.93
2019-02-08T06:59:59.161Z,1.79
2019-02-08T07:02:42.338Z,1.68
2019-02-08T07:05:34.392Z,1.63
2019-02-08T07:08:18.317Z,1.60
2019-02-08T07:11:10.077Z,1.70
2019-02-08T07:14:08.194Z,1.65
2019-02-08T07:16:57.328Z,1.70
2019-02-08T07:19:37.041Z,1.84
2019-02-08T07:22:27.647Z,1.99
2019-02-08T07:25:18.323Z,2.05
2019-02-08T07:27:54.239Z,2.13
2019-02-08T07:30:46.103Z,2.27
2019-02-08T07:33:41.254Z,2.58
2019-02-08T07:36:40.051Z,2.83
2019-02-08T07:39:35.197Z,3.38
2019-02-08T07:42:33.381Z,3.15
2019-02-08T07:45:10.677Z,2.90
2019-02-08T07:48:05.617Z,2.86
2019-02-08T07:50:40.352Z,2.92
2019-02-08T07:53:20.550Z,2.99
2019-02-08T07:56:03.021Z,3.05
2019-02-08T07:58:39.032Z,3.11
2019-02-08T08:01:31.210Z,3.22
2019-02-08T08:04:11.438Z,3.34
2019-02-08T08:07:17.005Z,3.42
2019-02-08T08:09:57.381Z,3.55
2019-02-08T08:12:49.978Z,3.63
2019-02-08T08:15:37.932Z,3.78
2019-02-08T08:18:36.216Z,3.94
2019-02-08T08:21:15.674Z,4.03
2019-02-08T08:24:05.948Z,4.14
2019-02-08T08:27:12.542Z,4.23
2019-02-08T08:30:01.043Z,4.31
2019-02-08T08:32:38.169Z,5.03
2019-02-08T08:35:20.387Z,5.99
2019-02-08T08:38:27.365Z,5.94
2019-02-08T08:41:35.621Z,6.59
2019-02-08T08:44:32.507Z,6.06
2019-02-08T08:47:45.697Z,6.35
2019-02-08T08:51:04.774Z,6.48
2019-02-08T08:53:53.527Z,6.67
2019-02-08T08:57:03.448Z,6.52
2019-02-08T08:59:54.051Z,6.68
2019-02-08T09:02:46.742Z,6.76
2019-02-08T09:05:52.431Z,6.94
2019-02-08T09:08:49.690Z,6.94
2019-02-08T09:12:07.549Z,7.24
2019-02-08T09:15:39.993Z,7.43
2019-02-08T09:18:36.013Z,6.89
2019-02-08T09:21:36.948Z,6.94
2019-02-08T09:24:23.532Z,6.83
2019-02-08T09:27:14.818Z,6.91
2019-02-08T09:30:20.631Z,7.07
2019-02-08T09:33:36.764Z,6.95
2019-02-08T09:36:47.341Z,7.16
2019-02-08T09:39:43.399Z,7.59
2019-02-08T09:42:53.457Z,7.61
2019-02-08T09:45:59.447Z,7.40
2019-02-08T09:49:06.528Z,6.78
2019-02-08T09:52:13.100Z,7.06
2019-02-08T09:55:13.784Z,7.07
2019-02-08T09:58:20.021Z,7.29
2019-02-08T10:01:29.832Z,7.31
2019-02-08T10:04:32.353Z,7.24
2019-02-08T10:07:39.774Z,7.14
2019-02-08T10:11:03.057Z,7.17
2019-02-08T10:13:58.056Z,7.03
2019-02-08T10:17:08.872Z,6.84
2019-02-08T10:20:14.950Z,6.86
2019-02-08T10:23:37.256Z,7.02
2019-02-08T10:26:32.820Z,7.18
2019-02-08T10:29:38.817Z,7.39
2019-02-08T10:32:55.729Z,7.57
2019-02-08T10:36:15.321Z,7.39
2019-02-08T10:39:40.344Z,7.70
2019-02-08T10:42:48.286Z,7.73
2019-02-08T10:45:54.307Z,7.73
2019-02-08T10:48:51.148Z,7.77
2019-02-08T10:52:10.430Z,7.94
2019-02-08T10:55:26.100Z,8.06
2019-02-08T10:58:34.347Z,8.09
2019-02-08T11:01:41.849Z,7.86
2019-02-08T11:04:52.957Z,8.02
2019-02-08T11:08:06.584Z,7.99
2019-02-08T11:11:26.598Z,7.84
2019-02-08T11:14:27.191Z,8.06
2019-02-08T11:17:33.171Z,8.28
2019-02-08T11:20:03.246Z,8.46
2019-02-08T11:22:33.285Z,8.29
2019-02-08T11:25:03.316Z,8.46
2019-02-08T11:27:33.242Z,8.54
2019-02-08T11:30:03.397Z,8.51
2019-02-08T11:32:43.188Z,8.47
2019-02-08T11:35:06.396Z,8.42
2019-02-08T11:37:36.374Z,8.58
2019-02-08T11:40:10.518Z,8.48
2019-02-08T11:42:40.504Z,8.84
2019-02-08T11:45:11.151Z,8.75
2019-02-08T11:47:41.064Z,8.74
2019-02-08T11:50:14.894Z,9.06
2019-02-08T11:52:44.881Z,9.17
2019-02-08T11:55:15.007Z,9.18
2019-02-08T11:57:44.973Z,8.85
2019-02-08T12:00:29.357Z,9.04
2019-02-08T12:02:59.336Z,9.19
2019-02-08T12:05:29.356Z,9.42
2019-02-08T12:08:00.316Z,9.23
2019-02-08T12:10:30.288Z,9.48
2019-02-08T12:13:00.257Z,9.83
2019-02-08T12:15:30.502Z,9.48
2019-02-08T12:18:01.488Z,9.69
2019-02-08T12:20:31.614Z,9.41
2019-02-08T12:23:01.653Z,9.22
2019-02-08T12:25:31.797Z,9.76
2019-02-08T12:28:01.688Z,9.93
2019-02-08T12:30:34.629Z,9.96
2019-02-08T12:33:05.335Z,10.00
2019-02-08T12:35:35.554Z,10.27
2019-02-08T12:38:05.645Z,10.38
2019-02-08T12:40:35.586Z,10.27
2019-02-08T12:43:05.917Z,10.51
2019-02-08T12:45:35.897Z,10.68
2019-02-08T12:48:06.089Z,10.74
2019-02-08T12:50:37.042Z,10.54
2019-02-08T12:53:07.054Z,10.76
2019-02-08T12:55:37.068Z,10.60
2019-02-08T12:58:07.096Z,11.09
2019-02-08T13:00:37.071Z,10.95
2019-02-08T13:03:07.024Z,11.16
2019-02-08T13:05:37.083Z,10.48
2019-02-08T13:08:07.211Z,10.64
2019-02-08T13:10:37.397Z,10.80
2019-02-08T13:13:07.459Z,11.08
2019-02-08T13:15:37.417Z,10.78
2019-02-08T13:18:07.464Z,10.21
2019-02-08T13:20:37.593Z,10.52
2019-02-08T13:23:07.639Z,10.74
2019-02-08T13:25:37.702Z,11.03
2019-02-08T13:28:07.741Z,10.78
2019-02-08T13:30:37.855Z,11.10
2019-02-08T13:33:07.955Z,11.25
2019-02-08T13:35:37.951Z,11.41
2019-02-08T13:38:07.938Z,11.31
2019-02-08T13:40:37.961Z,11.34
2019-02-08T13:43:08.064Z,11.12
2019-02-08T13:45:38.127Z,11.06
2019-02-08T13:48:08.113Z,11.09
2019-02-08T13:50:38.186Z,11.49
2019-02-08T13:53:08.182Z,11.47
2019-02-08T13:55:38.164Z,11.59
2019-02-08T13:58:08.174Z,11.70
2019-02-08T14:00:38.541Z,11.83
2019-02-08T14:03:08.972Z,11.56
2019-02-08T14:05:39.026Z,11.40
2019-02-08T14:08:09.051Z,11.25
2019-02-08T14:10:38.936Z,11.35
2019-02-08T14:13:09.091Z,11.50
2019-02-08T14:15:39.101Z,11.65
2019-02-08T14:18:09.125Z,11.33
2019-02-08T14:20:39.106Z,11.12
2019-02-08T14:23:09.087Z,10.98
2019-02-08T14:25:39.143Z,10.82
2019-02-08T14:28:09.224Z,10.86
2019-02-08T14:30:40.713Z,11.07
2019-02-08T14:33:10.851Z,11.10
2019-02-08T14:35:41.033Z,10.93
2019-02-08T14:38:16.694Z,10.97
2019-02-08T14:40:47.105Z,10.97
2019-02-08T14:43:17.087Z,11.15
2019-02-08T14:45:47.071Z,11.05
2019-02-08T14:48:17.137Z,10.79
2019-02-08T14:50:47.124Z,10.74
2019-02-08T14:53:17.350Z,10.69
2019-02-08T14:55:47.737Z,10.74
2019-02-08T14:58:17.744Z,10.49
2019-02-08T15:00:48.036Z,10.53
2019-02-08T15:03:17.986Z,10.51
2019-02-08T15:05:47.928Z,10.28
2019-02-08T15:08:17.769Z,10.22
2019-02-08T15:10:49.272Z,10.07
2019-02-08T15:13:19.476Z,9.96
2019-02-08T15:15:49.468Z,9.85
2019-02-08T15:18:19.356Z,9.66
2019-02-08T15:20:49.394Z,9.34
2019-02-08T15:23:19.540Z,9.15
2019-02-08T15:25:49.604Z,9.03
2019-02-08T15:28:19.626Z,8.84
2019-02-08T15:30:49.668Z,8.86
2019-02-08T15:33:19.725Z,8.83
2019-02-08T15:35:49.724Z,8.65
2019-02-08T15:38:19.797Z,8.55
2019-02-08T15:40:52.374Z,8.42
2019-02-08T15:43:23.428Z,8.29
2019-02-08T15:45:55.940Z,8.12
2019-02-08T15:48:26.122Z,7.98
2019-02-08T15:50:56.148Z,7.87
2019-02-08T15:53:26.174Z,7.80
2019-02-08T15:55:59.689Z,7.68
2019-02-08T15:58:29.752Z,7.53
2019-02-08T16:00:59.731Z,7.38
2019-02-08T16:03:29.676Z,7.27
2019-02-08T16:05:59.638Z,7.14
2019-02-08T16:08:29.570Z,7.11
2019-02-08T16:10:59.654Z,7.09
2019-02-08T16:13:29.596Z,7.03
2019-02-08T16:15:59.547Z,6.93
2019-02-08T16:18:29.390Z,6.84
2019-02-08T16:20:59.798Z,6.75
2019-02-08T16:23:29.754Z,6.63
2019-02-08T16:25:59.820Z,6.55
2019-02-08T16:28:29.714Z,6.47
2019-02-08T16:30:59.958Z,6.38
2019-02-08T16:33:29.990Z,6.30
2019-02-08T16:36:00.044Z,6.26
2019-02-08T16:38:30.027Z,6.15
2019-02-08T16:40:59.986Z,6.07
2019-02-08T16:43:29.897Z,6.07
2019-02-08T16:46:04.296Z,6.01
2019-02-08T16:48:34.939Z,5.97
2019-02-08T16:51:05.121Z,5.96
2019-02-08T16:53:35.129Z,5.92
2019-02-08T16:56:05.742Z,5.86
2019-02-08T16:58:35.792Z,5.83
2019-02-08T17:01:06.227Z,5.85
2019-02-08T17:03:36.177Z,5.79
2019-02-08T17:06:06.362Z,5.78
2019-02-08T17:08:36.325Z,5.78
2019-02-08T17:11:06.298Z,5.70
2019-02-08T17:13:36.271Z,5.70
2019-02-08T17:16:07.101Z,5.69
2019-02-08T17:18:37.211Z,5.66
2019-02-08T17:21:07.618Z,5.76
2019-02-08T17:23:37.589Z,5.70
2019-02-08T17:26:07.672Z,5.70
2019-02-08T17:28:37.631Z,5.74
2019-02-08T17:31:07.627Z,5.73
2019-02-08T17:33:37.564Z,5.67
2019-02-08T17:36:07.575Z,5.76
2019-02-08T17:38:37.456Z,5.85
2019-02-08T17:41:07.549Z,5.82
2019-02-08T17:43:37.436Z,5.76
2019-02-08T17:46:07.421Z,5.80
2019-02-08T17:48:37.460Z,5.78
2019-02-08T17:51:07.518Z,5.73
2019-02-08T17:53:37.455Z,5.78
2019-02-08T17:56:07.491Z,5.57
2019-02-08T17:58:37.335Z,5.51
2019-02-08T18:01:07.394Z,5.31
2019-02-08T18:03:37.231Z,5.23
2019-02-08T18:06:07.226Z,5.13
2019-02-08T18:08:37.161Z,5.07
2019-02-08T18:11:07.218Z,5.04
2019-02-08T18:13:37.062Z,4.98
2019-02-08T18:16:07.255Z,4.94
2019-02-08T18:18:37.195Z,4.91
2019-02-08T18:21:10.111Z,4.99
2019-02-08T18:23:41.186Z,4.96
2019-02-08T18:26:11.261Z,4.95
2019-02-08T18:28:41.077Z,4.91
2019-02-08T18:31:11.105Z,4.84
2019-02-08T18:33:41.153Z,4.79
2019-02-08T18:36:11.212Z,4.70
2019-02-08T18:38:41.409Z,4.70
2019-02-08T18:41:11.412Z,4.68
2019-02-08T18:43:41.299Z,4.65
2019-02-08T18:46:12.378Z,4.73
2019-02-08T18:48:42.238Z,4.75
2019-02-08T18:51:12.214Z,4.80
2019-02-08T18:53:42.118Z,4.72
2019-02-08T18:56:12.117Z,4.57
2019-02-08T18:58:42.056Z,4.67
2019-02-08T19:01:12.062Z,4.55
2019-02-08T19:03:42.131Z,4.60
2019-02-08T19:06:12.115Z,4.55
2019-02-08T19:08:42.131Z,4.49
2019-02-08T19:11:12.148Z,4.44
2019-02-08T19:13:42.186Z,4.47
2019-02-08T19:16:12.164Z,4.50
2019-02-08T19:18:42.126Z,4.43
2019-02-08T19:21:12.135Z,4.43
2019-02-08T19:23:42.340Z,4.36
2019-02-08T19:26:12.375Z,4.37
2019-02-08T19:28:42.300Z,4.31
2019-02-08T19:31:12.359Z,4.31
2019-02-08T19:33:42.261Z,4.33
2019-02-08T19:36:12.406Z,4.35
2019-02-08T19:38:42.395Z,4.31
2019-02-08T19:41:12.430Z,4.32
2019-02-08T19:43:42.422Z,4.33
2019-02-08T19:46:12.585Z,4.25
2019-02-08T19:48:42.567Z,4.18
2019-02-08T19:51:12.579Z,4.18
2019-02-08T19:53:42.591Z,4.12
2019-02-08T19:56:12.624Z,4.05
2019-02-08T19:58:42.543Z,4.17
2019-02-08T20:01:12.575Z,4.13
2019-02-08T20:03:42.586Z,4.01
2019-02-08T20:06:12.782Z,4.01
2019-02-08T20:08:42.949Z,3.96
2019-02-08T20:11:12.969Z,3.89
2019-02-08T20:13:43.065Z,3.84
2019-02-08T20:16:16.072Z,3.75
2019-02-08T20:18:46.060Z,3.77
2019-02-08T20:21:15.959Z,3.77
2019-02-08T20:23:46.991Z,3.72
2019-02-08T20:26:16.969Z,3.78
2019-02-08T20:28:47.016Z,3.70
2019-02-08T20:31:17.909Z,3.70
2019-02-08T20:33:47.925Z,3.67
2019-02-08T20:36:19.303Z,3.54
2019-02-08T20:38:49.138Z,3.42
2019-02-08T20:41:19.126Z,3.32
2019-02-08T20:43:49.031Z,3.26
2019-02-08T20:46:18.925Z,3.33
2019-02-08T20:48:48.890Z,3.29
2019-02-08T20:51:18.934Z,3.29
2019-02-08T20:53:48.874Z,3.31
2019-02-08T20:56:18.833Z,3.25
2019-02-08T20:58:50.279Z,3.27
2019-02-08T21:01:20.903Z,3.23
2019-02-08T21:03:50.790Z,3.43
2019-02-08T21:06:20.963Z,3.78
2019-02-08T21:08:50.927Z,3.81
2019-02-08T21:11:21.109Z,3.94
2019-02-08T21:13:51.255Z,3.62
2019-02-08T21:16:21.282Z,3.36
2019-02-08T21:18:51.120Z,3.11
2019-02-08T21:21:21.157Z,2.91
2019-02-08T21:23:51.182Z,2.73
2019-02-08T21:26:21.358Z,2.57
2019-02-08T21:28:57.898Z,2.50
2019-02-08T21:31:23.022Z,2.40
2019-02-08T21:33:52.960Z,2.50
2019-02-08T21:36:22.946Z,2.54
2019-02-08T21:38:53.093Z,2.47
2019-02-08T21:41:23.125Z,2.34
2019-02-08T21:43:53.063Z,2.25
2019-02-08T21:46:23.105Z,2.26
2019-02-08T21:48:52.993Z,2.33
2019-02-08T21:51:22.977Z,2.29
2019-02-08T21:56:28.511Z,2.30
2019-02-08T21:59:05.767Z,2.54
2019-02-08T22:01:30.350Z,2.44
2019-02-08T22:04:00.437Z,2.34
2019-02-08T22:06:30.738Z,2.35
2019-02-08T22:09:00.753Z,1.97
2019-02-08T22:11:32.550Z,2.09
2019-02-08T22:14:02.662Z,2.14
2019-02-08T22:16:32.655Z,2.59
2019-02-08T22:19:02.594Z,2.62
2019-02-08T22:21:32.482Z,2.64
2019-02-08T22:24:02.486Z,2.62
2019-02-08T22:26:32.498Z,2.66
2019-02-08T22:29:02.570Z,2.67
2019-02-08T22:31:32.604Z,2.58
2019-02-08T22:34:03.675Z,2.43
2019-02-08T22:36:33.639Z,2.27
2019-02-08T22:39:04.582Z,2.16
2019-02-08T22:41:35.543Z,2.16
2019-02-08T22:44:05.722Z,2.30
2019-02-08T22:46:35.638Z,2.34
2019-02-08T22:49:05.720Z,2.40
2019-02-08T22:51:35.659Z,2.44
2019-02-08T22:54:05.687Z,2.50
2019-02-08T22:56:35.603Z,2.52
2019-02-08T22:59:05.842Z,2.67
2019-02-08T23:01:41.273Z,2.62
2019-02-08T23:04:11.603Z,2.73
2019-02-08T23:06:44.805Z,2.67
2019-02-08T23:09:24.336Z,2.86
2019-02-08T23:11:54.438Z,2.76
2019-02-08T23:14:24.499Z,2.71
2019-02-08T23:16:54.489Z,2.78
2019-02-08T23:19:24.443Z,2.75
2019-02-08T23:21:55.329Z,2.86
2019-02-08T23:24:25.422Z,2.90
2019-02-08T23:26:55.361Z,3.09
2019-02-08T23:29:30.326Z,3.39
2019-02-08T23:31:57.054Z,3.23
2019-02-08T23:34:27.047Z,3.05
2019-02-08T23:36:56.970Z,3.12
2019-02-08T23:39:26.959Z,3.42
2019-02-08T23:44:34.379Z,3.81
2019-02-08T23:47:04.411Z,3.82
2019-02-08T23:49:34.443Z,3.94
2019-02-08T23:52:05.591Z,3.80
2019-02-08T23:54:35.558Z,3.35
2019-02-08T23:57:05.533Z,3.47
2019-02-08T23:59:38.072Z,3.60
